sensor_id;sensor_type;location;lat;lon;timestamp;P1;durP1;ratioP1;P2;durP2;ratioP2
15451;SDS011;7827;53.594;9.938;2023-05-23T00:02:26;0.40;;;0.40;;
15451;SDS011;7827;53.594;9.938;2023-05-23T00:04:56;0.40;;;0.40;;
15451;SDS011;7827;53.594;9.938;2023-05-23T00:07:25;0.40;;;0.40;;
15451;SDS011;7827;53.594;9.938;2023-05-23T00:09:53;0.40;;;0.40;;
15451;SDS011;7827;53.594;9.938;2023-05-23T00:12:21;0.35;;;0.35;;
15451;SDS011;7827;53.594;9.938;2023-05-23T00:14:50;0.40;;;0.40;;
15451;SDS011;7827;53.594;9.938;2023-05-23T00:17:20;0.40;;;0.40;;
15451;SDS011;7827;53.594;9.938;2023-05-23T00:19:51;0.40;;;0.40;;
15451;SDS011;7827;53.594;9.938;2023-05-23T00:22:21;0.40;;;0.40;;
15451;SDS011;7827;53.594;9.938;2023-05-23T00:24:49;0.50;;;0.50;;
15451;SDS011;7827;53.594;9.938;2023-05-23T00:27:19;0.40;;;0.40;;
15451;SDS011;7827;53.594;9.938;2023-05-23T00:29:47;0.30;;;0.30;;
15451;SDS011;7827;53.594;9.938;2023-05-23T00:32:15;0.30;;;0.30;;
15451;SDS011;7827;53.594;9.938;2023-05-23T00:34:45;0.40;;;0.40;;
15451;SDS011;7827;53.594;9.938;2023-05-23T00:37:13;0.30;;;0.30;;
15451;SDS011;7827;53.594;9.938;2023-05-23T00:39:42;0.40;;;0.40;;
15451;SDS011;7827;53.594;9.938;2023-05-23T00:42:10;0.40;;;0.40;;
15451;SDS011;7827;53.594;9.938;2023-05-23T00:44:38;0.40;;;0.40;;
15451;SDS011;7827;53.594;9.938;2023-05-23T00:47:07;0.40;;;0.40;;
15451;SDS011;7827;53.594;9.938;2023-05-23T00:49:36;0.40;;;0.40;;
15451;SDS011;7827;53.594;9.938;2023-05-23T00:52:06;0.40;;;0.40;;
15451;SDS011;7827;53.594;9.938;2023-05-23T00:54:34;0.40;;;0.40;;
15451;SDS011;7827;53.594;9.938;2023-05-23T00:57:04;0.38;;;0.38;;
15451;SDS011;7827;53.594;9.938;2023-05-23T00:59:33;0.43;;;0.43;;
15451;SDS011;7827;53.594;9.938;2023-05-23T01:02:04;0.45;;;0.45;;
15451;SDS011;7827;53.594;9.938;2023-05-23T01:04:33;0.50;;;0.50;;
15451;SDS011;7827;53.594;9.938;2023-05-23T01:07:03;0.40;;;0.40;;
15451;SDS011;7827;53.594;9.938;2023-05-23T01:09:33;0.40;;;0.40;;
15451;SDS011;7827;53.594;9.938;2023-05-23T01:12:04;0.40;;;0.40;;
15451;SDS011;7827;53.594;9.938;2023-05-23T01:14:48;0.45;;;0.45;;
15451;SDS011;7827;53.594;9.938;2023-05-23T01:17:28;0.40;;;0.40;;
15451;SDS011;7827;53.594;9.938;2023-05-23T01:20:08;0.40;;;0.40;;
15451;SDS011;7827;53.594;9.938;2023-05-23T01:22:52;0.40;;;0.40;;
15451;SDS011;7827;53.594;9.938;2023-05-23T01:25:50;0.40;;;0.40;;
15451;SDS011;7827;53.594;9.938;2023-05-23T01:28:36;0.50;;;0.50;;
15451;SDS011;7827;53.594;9.938;2023-05-23T01:31:11;0.40;;;0.40;;
15451;SDS011;7827;53.594;9.938;2023-05-23T01:33:43;0.40;;;0.40;;
15451;SDS011;7827;53.594;9.938;2023-05-23T01:36:12;0.40;;;0.40;;
15451;SDS011;7827;53.594;9.938;2023-05-23T01:38:43;0.40;;;0.40;;
15451;SDS011;7827;53.594;9.938;2023-05-23T01:41:11;0.47;;;0.47;;
15451;SDS011;7827;53.594;9.938;2023-05-23T01:43:41;0.40;;;0.40;;
15451;SDS011;7827;53.594;9.938;2023-05-23T01:46:09;0.40;;;0.40;;
15451;SDS011;7827;53.594;9.938;2023-05-23T01:48:39;0.40;;;0.40;;
15451;SDS011;7827;53.594;9.938;2023-05-23T01:51:09;0.40;;;0.40;;
15451;SDS011;7827;53.594;9.938;2023-05-23T01:53:37;0.40;;;0.40;;
15451;SDS011;7827;53.594;9.938;2023-05-23T01:56:06;0.40;;;0.40;;
15451;SDS011;7827;53.594;9.938;2023-05-23T01:58:35;0.50;;;0.50;;
15451;SDS011;7827;53.594;9.938;2023-05-23T02:01:05;0.40;;;0.40;;
15451;SDS011;7827;53.594;9.938;2023-05-23T02:03:35;0.40;;;0.40;;
15451;SDS011;7827;53.594;9.938;2023-05-23T02:06:03;0.40;;;0.40;;
15451;SDS011;7827;53.594;9.938;2023-05-23T02:08:33;0.40;;;0.40;;
15451;SDS011;7827;53.594;9.938;2023-05-23T02:11:01;0.47;;;0.47;;
15451;SDS011;7827;53.594;9.938;2023-05-23T02:13:30;0.50;;;0.50;;
15451;SDS011;7827;53.594;9.938;2023-05-23T02:15:58;0.40;;;0.40;;
15451;SDS011;7827;53.594;9.938;2023-05-23T02:18:28;0.40;;;0.40;;
15451;SDS011;7827;53.594;9.938;2023-05-23T02:20:57;0.40;;;0.40;;
15451;SDS011;7827;53.594;9.938;2023-05-23T02:23:25;0.47;;;0.47;;
15451;SDS011;7827;53.594;9.938;2023-05-23T02:25:53;0.50;;;0.50;;
15451;SDS011;7827;53.594;9.938;2023-05-23T02:28:22;0.50;;;0.50;;
15451;SDS011;7827;53.594;9.938;2023-05-23T02:30:51;0.40;;;0.40;;
15451;SDS011;7827;53.594;9.938;2023-05-23T02:33:19;0.50;;;0.50;;
15451;SDS011;7827;53.594;9.938;2023-05-23T02:35:51;0.47;;;0.47;;
15451;SDS011;7827;53.594;9.938;2023-05-23T02:38:20;0.50;;;0.50;;
15451;SDS011;7827;53.594;9.938;2023-05-23T02:40:49;0.50;;;0.50;;
15451;SDS011;7827;53.594;9.938;2023-05-23T02:43:19;0.50;;;0.50;;
15451;SDS011;7827;53.594;9.938;2023-05-23T02:45:47;0.50;;;0.50;;
15451;SDS011;7827;53.594;9.938;2023-05-23T02:48:16;0.50;;;0.50;;
15451;SDS011;7827;53.594;9.938;2023-05-23T02:50:44;0.50;;;0.50;;
15451;SDS011;7827;53.594;9.938;2023-05-23T02:53:14;0.40;;;0.40;;
15451;SDS011;7827;53.594;9.938;2023-05-23T02:55:43;0.50;;;0.50;;
15451;SDS011;7827;53.594;9.938;2023-05-23T02:58:12;0.40;;;0.40;;
15451;SDS011;7827;53.594;9.938;2023-05-23T03:00:40;0.50;;;0.50;;
15451;SDS011;7827;53.594;9.938;2023-05-23T03:03:09;0.40;;;0.40;;
15451;SDS011;7827;53.594;9.938;2023-05-23T03:05:38;0.50;;;0.50;;
15451;SDS011;7827;53.594;9.938;2023-05-23T03:08:07;0.60;;;0.60;;
15451;SDS011;7827;53.594;9.938;2023-05-23T03:10:37;0.50;;;0.50;;
15451;SDS011;7827;53.594;9.938;2023-05-23T03:13:05;0.50;;;0.50;;
15451;SDS011;7827;53.594;9.938;2023-05-23T03:15:34;0.50;;;0.50;;
15451;SDS011;7827;53.594;9.938;2023-05-23T03:18:03;0.50;;;0.50;;
15451;SDS011;7827;53.594;9.938;2023-05-23T03:20:31;0.50;;;0.50;;
15451;SDS011;7827;53.594;9.938;2023-05-23T03:23:00;0.50;;;0.50;;
15451;SDS011;7827;53.594;9.938;2023-05-23T03:25:29;0.50;;;0.50;;
15451;SDS011;7827;53.594;9.938;2023-05-23T03:27:59;0.50;;;0.50;;
15451;SDS011;7827;53.594;9.938;2023-05-23T03:30:27;0.50;;;0.50;;
15451;SDS011;7827;53.594;9.938;2023-05-23T03:32:55;0.50;;;0.50;;
15451;SDS011;7827;53.594;9.938;2023-05-23T03:35:24;0.50;;;0.50;;
15451;SDS011;7827;53.594;9.938;2023-05-23T03:37:52;0.52;;;0.52;;
15451;SDS011;7827;53.594;9.938;2023-05-23T03:40:21;0.50;;;0.50;;
15451;SDS011;7827;53.594;9.938;2023-05-23T03:43:01;0.50;;;0.50;;
15451;SDS011;7827;53.594;9.938;2023-05-23T03:45:32;0.50;;;0.50;;
15451;SDS011;7827;53.594;9.938;2023-05-23T03:48:05;0.50;;;0.50;;
15451;SDS011;7827;53.594;9.938;2023-05-23T03:50:34;0.50;;;0.50;;
15451;SDS011;7827;53.594;9.938;2023-05-23T03:53:02;0.50;;;0.50;;
15451;SDS011;7827;53.594;9.938;2023-05-23T03:55:31;0.50;;;0.50;;
15451;SDS011;7827;53.594;9.938;2023-05-23T03:58:01;0.50;;;0.50;;
15451;SDS011;7827;53.594;9.938;2023-05-23T04:00:30;0.50;;;0.50;;
15451;SDS011;7827;53.594;9.938;2023-05-23T04:03:00;0.60;;;0.60;;
15451;SDS011;7827;53.594;9.938;2023-05-23T04:05:29;0.50;;;0.50;;
15451;SDS011;7827;53.594;9.938;2023-05-23T04:07:58;0.50;;;0.50;;
15451;SDS011;7827;53.594;9.938;2023-05-23T04:10:28;0.60;;;0.60;;
15451;SDS011;7827;53.594;9.938;2023-05-23T04:12:57;0.50;;;0.50;;
15451;SDS011;7827;53.594;9.938;2023-05-23T04:15:27;0.50;;;0.50;;
15451;SDS011;7827;53.594;9.938;2023-05-23T04:18:01;0.50;;;0.50;;
15451;SDS011;7827;53.594;9.938;2023-05-23T04:20:31;0.60;;;0.60;;
15451;SDS011;7827;53.594;9.938;2023-05-23T04:22:59;0.60;;;0.60;;
15451;SDS011;7827;53.594;9.938;2023-05-23T04:25:29;0.50;;;0.50;;
15451;SDS011;7827;53.594;9.938;2023-05-23T04:28:06;0.50;;;0.50;;
15451;SDS011;7827;53.594;9.938;2023-05-23T04:30:37;0.55;;;0.55;;
15451;SDS011;7827;53.594;9.938;2023-05-23T04:33:05;0.60;;;0.60;;
15451;SDS011;7827;53.594;9.938;2023-05-23T04:35:35;0.50;;;0.50;;
15451;SDS011;7827;53.594;9.938;2023-05-23T04:38:06;0.60;;;0.60;;
15451;SDS011;7827;53.594;9.938;2023-05-23T04:40:35;0.50;;;0.50;;
15451;SDS011;7827;53.594;9.938;2023-05-23T04:43:24;0.60;;;0.60;;
15451;SDS011;7827;53.594;9.938;2023-05-23T04:46:11;0.60;;;0.60;;
15451;SDS011;7827;53.594;9.938;2023-05-23T04:48:43;0.60;;;0.60;;
15451;SDS011;7827;53.594;9.938;2023-05-23T04:51:12;0.60;;;0.60;;
15451;SDS011;7827;53.594;9.938;2023-05-23T04:54:06;0.60;;;0.60;;
15451;SDS011;7827;53.594;9.938;2023-05-23T04:56:35;0.60;;;0.60;;
15451;SDS011;7827;53.594;9.938;2023-05-23T04:59:04;0.57;;;0.57;;
15451;SDS011;7827;53.594;9.938;2023-05-23T05:01:35;0.60;;;0.60;;
15451;SDS011;7827;53.594;9.938;2023-05-23T05:04:07;0.60;;;0.60;;
15451;SDS011;7827;53.594;9.938;2023-05-23T05:06:35;0.60;;;0.60;;
15451;SDS011;7827;53.594;9.938;2023-05-23T05:09:03;0.60;;;0.60;;
15451;SDS011;7827;53.594;9.938;2023-05-23T05:11:32;0.60;;;0.60;;
15451;SDS011;7827;53.594;9.938;2023-05-23T05:14:01;0.50;;;0.50;;
15451;SDS011;7827;53.594;9.938;2023-05-23T05:16:30;0.60;;;0.60;;
15451;SDS011;7827;53.594;9.938;2023-05-23T05:19:00;0.60;;;0.60;;
15451;SDS011;7827;53.594;9.938;2023-05-23T05:21:30;0.50;;;0.50;;
15451;SDS011;7827;53.594;9.938;2023-05-23T05:23:58;0.50;;;0.50;;
15451;SDS011;7827;53.594;9.938;2023-05-23T05:26:27;0.55;;;0.55;;
15451;SDS011;7827;53.594;9.938;2023-05-23T05:28:55;0.50;;;0.50;;
15451;SDS011;7827;53.594;9.938;2023-05-23T05:31:25;0.52;;;0.52;;
15451;SDS011;7827;53.594;9.938;2023-05-23T05:33:54;0.50;;;0.50;;
15451;SDS011;7827;53.594;9.938;2023-05-23T05:36:24;0.55;;;0.55;;
15451;SDS011;7827;53.594;9.938;2023-05-23T05:38:53;0.50;;;0.50;;
15451;SDS011;7827;53.594;9.938;2023-05-23T05:41:21;0.50;;;0.50;;
15451;SDS011;7827;53.594;9.938;2023-05-23T05:43:51;0.50;;;0.50;;
15451;SDS011;7827;53.594;9.938;2023-05-23T05:46:20;0.50;;;0.50;;
15451;SDS011;7827;53.594;9.938;2023-05-23T05:48:49;0.60;;;0.60;;
15451;SDS011;7827;53.594;9.938;2023-05-23T05:51:18;0.50;;;0.50;;
15451;SDS011;7827;53.594;9.938;2023-05-23T05:53:49;0.50;;;0.50;;
15451;SDS011;7827;53.594;9.938;2023-05-23T05:56:18;0.50;;;0.50;;
15451;SDS011;7827;53.594;9.938;2023-05-23T05:58:47;0.50;;;0.50;;
15451;SDS011;7827;53.594;9.938;2023-05-23T06:01:16;0.50;;;0.50;;
15451;SDS011;7827;53.594;9.938;2023-05-23T06:03:44;0.50;;;0.50;;
15451;SDS011;7827;53.594;9.938;2023-05-23T06:06:13;0.50;;;0.50;;
15451;SDS011;7827;53.594;9.938;2023-05-23T06:08:42;0.50;;;0.50;;
15451;SDS011;7827;53.594;9.938;2023-05-23T06:11:15;0.50;;;0.50;;
15451;SDS011;7827;53.594;9.938;2023-05-23T06:13:44;0.50;;;0.50;;
15451;SDS011;7827;53.594;9.938;2023-05-23T06:16:12;0.50;;;0.50;;
15451;SDS011;7827;53.594;9.938;2023-05-23T06:18:43;0.50;;;0.50;;
15451;SDS011;7827;53.594;9.938;2023-05-23T06:21:11;0.52;;;0.52;;
15451;SDS011;7827;53.594;9.938;2023-05-23T06:23:40;0.50;;;0.50;;
15451;SDS011;7827;53.594;9.938;2023-05-23T06:26:08;0.52;;;0.52;;
15451;SDS011;7827;53.594;9.938;2023-05-23T06:28:38;0.50;;;0.50;;
15451;SDS011;7827;53.594;9.938;2023-05-23T06:31:06;0.50;;;0.50;;
15451;SDS011;7827;53.594;9.938;2023-05-23T06:33:36;0.60;;;0.60;;
15451;SDS011;7827;53.594;9.938;2023-05-23T06:36:04;0.52;;;0.52;;
15451;SDS011;7827;53.594;9.938;2023-05-23T06:38:33;0.50;;;0.50;;
15451;SDS011;7827;53.594;9.938;2023-05-23T06:41:01;0.60;;;0.60;;
15451;SDS011;7827;53.594;9.938;2023-05-23T06:43:33;0.50;;;0.50;;
15451;SDS011;7827;53.594;9.938;2023-05-23T06:46:13;0.57;;;0.57;;
15451;SDS011;7827;53.594;9.938;2023-05-23T06:48:41;0.60;;;0.60;;
15451;SDS011;7827;53.594;9.938;2023-05-23T06:51:10;0.52;;;0.52;;
15451;SDS011;7827;53.594;9.938;2023-05-23T06:53:39;0.50;;;0.50;;
15451;SDS011;7827;53.594;9.938;2023-05-23T06:56:07;0.50;;;0.50;;
15451;SDS011;7827;53.594;9.938;2023-05-23T06:58:49;0.50;;;0.50;;
15451;SDS011;7827;53.594;9.938;2023-05-23T07:01:19;0.60;;;0.60;;
15451;SDS011;7827;53.594;9.938;2023-05-23T07:03:49;0.50;;;0.50;;
15451;SDS011;7827;53.594;9.938;2023-05-23T07:06:18;0.60;;;0.60;;
15451;SDS011;7827;53.594;9.938;2023-05-23T07:08:46;0.55;;;0.55;;
15451;SDS011;7827;53.594;9.938;2023-05-23T07:11:15;0.60;;;0.60;;
15451;SDS011;7827;53.594;9.938;2023-05-23T07:13:48;0.60;;;0.60;;
15451;SDS011;7827;53.594;9.938;2023-05-23T07:16:36;0.60;;;0.60;;
15451;SDS011;7827;53.594;9.938;2023-05-23T07:19:06;0.52;;;0.52;;
15451;SDS011;7827;53.594;9.938;2023-05-23T07:21:41;0.60;;;0.60;;
15451;SDS011;7827;53.594;9.938;2023-05-23T07:24:11;0.60;;;0.60;;
15451;SDS011;7827;53.594;9.938;2023-05-23T07:26:40;0.50;;;0.50;;
15451;SDS011;7827;53.594;9.938;2023-05-23T07:29:09;0.60;;;0.60;;
15451;SDS011;7827;53.594;9.938;2023-05-23T07:31:38;0.50;;;0.50;;
15451;SDS011;7827;53.594;9.938;2023-05-23T07:34:08;0.50;;;0.50;;
15451;SDS011;7827;53.594;9.938;2023-05-23T07:36:45;0.50;;;0.50;;
15451;SDS011;7827;53.594;9.938;2023-05-23T07:39:15;0.50;;;0.50;;
15451;SDS011;7827;53.594;9.938;2023-05-23T07:41:48;0.60;;;0.60;;
15451;SDS011;7827;53.594;9.938;2023-05-23T07:44:17;0.57;;;0.57;;
15451;SDS011;7827;53.594;9.938;2023-05-23T07:46:52;0.50;;;0.50;;
15451;SDS011;7827;53.594;9.938;2023-05-23T07:49:21;0.50;;;0.50;;
15451;SDS011;7827;53.594;9.938;2023-05-23T07:51:51;0.50;;;0.50;;
15451;SDS011;7827;53.594;9.938;2023-05-23T07:54:20;0.57;;;0.57;;
15451;SDS011;7827;53.594;9.938;2023-05-23T07:56:52;0.60;;;0.60;;
15451;SDS011;7827;53.594;9.938;2023-05-23T07:59:21;0.60;;;0.60;;
15451;SDS011;7827;53.594;9.938;2023-05-23T08:01:52;0.57;;;0.57;;
15451;SDS011;7827;53.594;9.938;2023-05-23T08:04:21;0.50;;;0.50;;
15451;SDS011;7827;53.594;9.938;2023-05-23T08:06:52;0.50;;;0.50;;
15451;SDS011;7827;53.594;9.938;2023-05-23T08:09:26;0.60;;;0.60;;
15451;SDS011;7827;53.594;9.938;2023-05-23T08:11:56;0.50;;;0.50;;
15451;SDS011;7827;53.594;9.938;2023-05-23T08:14:27;0.50;;;0.50;;
15451;SDS011;7827;53.594;9.938;2023-05-23T08:17:21;0.50;;;0.50;;
15451;SDS011;7827;53.594;9.938;2023-05-23T08:19:51;0.60;;;0.60;;
15451;SDS011;7827;53.594;9.938;2023-05-23T08:22:19;0.50;;;0.50;;
15451;SDS011;7827;53.594;9.938;2023-05-23T08:24:47;0.52;;;0.52;;
15451;SDS011;7827;53.594;9.938;2023-05-23T08:27:16;0.50;;;0.50;;
15451;SDS011;7827;53.594;9.938;2023-05-23T08:29:48;0.50;;;0.50;;
15451;SDS011;7827;53.594;9.938;2023-05-23T08:32:18;0.50;;;0.50;;
15451;SDS011;7827;53.594;9.938;2023-05-23T08:34:48;0.60;;;0.60;;
15451;SDS011;7827;53.594;9.938;2023-05-23T08:37:17;0.50;;;0.50;;
15451;SDS011;7827;53.594;9.938;2023-05-23T08:39:46;0.52;;;0.52;;
15451;SDS011;7827;53.594;9.938;2023-05-23T08:42:38;0.50;;;0.50;;
15451;SDS011;7827;53.594;9.938;2023-05-23T08:45:08;0.60;;;0.60;;
15451;SDS011;7827;53.594;9.938;2023-05-23T08:47:37;0.50;;;0.50;;
15451;SDS011;7827;53.594;9.938;2023-05-23T08:50:13;0.50;;;0.50;;
15451;SDS011;7827;53.594;9.938;2023-05-23T08:52:49;0.50;;;0.50;;
15451;SDS011;7827;53.594;9.938;2023-05-23T08:55:24;0.50;;;0.50;;
15451;SDS011;7827;53.594;9.938;2023-05-23T08:57:57;0.60;;;0.60;;
15451;SDS011;7827;53.594;9.938;2023-05-23T09:00:38;0.60;;;0.60;;
15451;SDS011;7827;53.594;9.938;2023-05-23T09:03:09;0.50;;;0.50;;
15451;SDS011;7827;53.594;9.938;2023-05-23T09:05:49;0.60;;;0.60;;
15451;SDS011;7827;53.594;9.938;2023-05-23T09:08:21;0.60;;;0.60;;
15451;SDS011;7827;53.594;9.938;2023-05-23T09:10:54;0.60;;;0.60;;
15451;SDS011;7827;53.594;9.938;2023-05-23T09:13:24;0.60;;;0.60;;
15451;SDS011;7827;53.594;9.938;2023-05-23T09:16:00;0.60;;;0.60;;
15451;SDS011;7827;53.594;9.938;2023-05-23T09:18:36;0.50;;;0.50;;
15451;SDS011;7827;53.594;9.938;2023-05-23T09:21:09;0.60;;;0.60;;
15451;SDS011;7827;53.594;9.938;2023-05-23T09:23:48;0.60;;;0.60;;
15451;SDS011;7827;53.594;9.938;2023-05-23T09:26:17;0.60;;;0.60;;
15451;SDS011;7827;53.594;9.938;2023-05-23T09:28:45;0.60;;;0.60;;
15451;SDS011;7827;53.594;9.938;2023-05-23T09:31:14;0.60;;;0.60;;
15451;SDS011;7827;53.594;9.938;2023-05-23T09:33:44;0.60;;;0.60;;
15451;SDS011;7827;53.594;9.938;2023-05-23T09:36:16;0.60;;;0.60;;
15451;SDS011;7827;53.594;9.938;2023-05-23T09:38:46;0.60;;;0.60;;
15451;SDS011;7827;53.594;9.938;2023-05-23T09:41:15;0.60;;;0.60;;
15451;SDS011;7827;53.594;9.938;2023-05-23T09:43:50;0.60;;;0.60;;
15451;SDS011;7827;53.594;9.938;2023-05-23T09:46:20;0.60;;;0.60;;
15451;SDS011;7827;53.594;9.938;2023-05-23T09:48:50;0.60;;;0.60;;
15451;SDS011;7827;53.594;9.938;2023-05-23T09:51:23;0.60;;;0.60;;
15451;SDS011;7827;53.594;9.938;2023-05-23T09:53:52;0.60;;;0.60;;
15451;SDS011;7827;53.594;9.938;2023-05-23T09:56:22;0.60;;;0.60;;
15451;SDS011;7827;53.594;9.938;2023-05-23T09:58:54;0.60;;;0.60;;
15451;SDS011;7827;53.594;9.938;2023-05-23T10:01:27;0.60;;;0.60;;
15451;SDS011;7827;53.594;9.938;2023-05-23T10:03:59;0.60;;;0.60;;
15451;SDS011;7827;53.594;9.938;2023-05-23T10:06:34;0.60;;;0.60;;
15451;SDS011;7827;53.594;9.938;2023-05-23T10:09:11;0.70;;;0.70;;
15451;SDS011;7827;53.594;9.938;2023-05-23T10:15:12;0.60;;;0.60;;
15451;SDS011;7827;53.594;9.938;2023-05-23T10:17:45;0.60;;;0.60;;
15451;SDS011;7827;53.594;9.938;2023-05-23T10:20:37;0.63;;;0.63;;
15451;SDS011;7827;53.594;9.938;2023-05-23T10:23:11;0.60;;;0.60;;
15451;SDS011;7827;53.594;9.938;2023-05-23T10:25:40;0.60;;;0.60;;
15451;SDS011;7827;53.594;9.938;2023-05-23T10:28:10;0.60;;;0.60;;
15451;SDS011;7827;53.594;9.938;2023-05-23T10:30:41;0.60;;;0.60;;
15451;SDS011;7827;53.594;9.938;2023-05-23T10:33:11;0.65;;;0.65;;
15451;SDS011;7827;53.594;9.938;2023-05-23T10:35:46;0.60;;;0.60;;
15451;SDS011;7827;53.594;9.938;2023-05-23T10:38:27;0.60;;;0.60;;
15451;SDS011;7827;53.594;9.938;2023-05-23T10:41:05;0.60;;;0.60;;
15451;SDS011;7827;53.594;9.938;2023-05-23T10:43:42;0.60;;;0.60;;
15451;SDS011;7827;53.594;9.938;2023-05-23T10:46:18;0.60;;;0.60;;
15451;SDS011;7827;53.594;9.938;2023-05-23T10:48:51;0.60;;;0.60;;
15451;SDS011;7827;53.594;9.938;2023-05-23T10:51:23;0.60;;;0.60;;
15451;SDS011;7827;53.594;9.938;2023-05-23T10:53:53;0.60;;;0.60;;
15451;SDS011;7827;53.594;9.938;2023-05-23T10:56:22;0.60;;;0.60;;
15451;SDS011;7827;53.594;9.938;2023-05-23T10:58:51;0.60;;;0.60;;
15451;SDS011;7827;53.594;9.938;2023-05-23T11:01:21;0.70;;;0.70;;
15451;SDS011;7827;53.594;9.938;2023-05-23T11:03:51;0.60;;;0.60;;
15451;SDS011;7827;53.594;9.938;2023-05-23T11:06:28;0.60;;;0.60;;
15451;SDS011;7827;53.594;9.938;2023-05-23T11:09:02;0.60;;;0.60;;
15451;SDS011;7827;53.594;9.938;2023-05-23T11:11:52;0.60;;;0.60;;
15451;SDS011;7827;53.594;9.938;2023-05-23T11:17:30;0.60;;;0.60;;
15451;SDS011;7827;53.594;9.938;2023-05-23T11:20:02;0.60;;;0.60;;
15451;SDS011;7827;53.594;9.938;2023-05-23T11:22:34;0.60;;;0.60;;
15451;SDS011;7827;53.594;9.938;2023-05-23T11:25:07;0.60;;;0.60;;
15451;SDS011;7827;53.594;9.938;2023-05-23T11:27:37;0.60;;;0.60;;
15451;SDS011;7827;53.594;9.938;2023-05-23T11:30:08;0.60;;;0.60;;
15451;SDS011;7827;53.594;9.938;2023-05-23T11:32:40;0.60;;;0.60;;
15451;SDS011;7827;53.594;9.938;2023-05-23T11:35:16;0.60;;;0.60;;
15451;SDS011;7827;53.594;9.938;2023-05-23T11:37:45;0.60;;;0.60;;
15451;SDS011;7827;53.594;9.938;2023-05-23T11:40:27;0.57;;;0.57;;
15451;SDS011;7827;53.594;9.938;2023-05-23T11:42:58;0.55;;;0.55;;
15451;SDS011;7827;53.594;9.938;2023-05-23T11:45:29;0.50;;;0.50;;
15451;SDS011;7827;53.594;9.938;2023-05-23T11:48:06;0.60;;;0.60;;
15451;SDS011;7827;53.594;9.938;2023-05-23T11:50:43;0.60;;;0.60;;
15451;SDS011;7827;53.594;9.938;2023-05-23T11:53:14;0.60;;;0.60;;
15451;SDS011;7827;53.594;9.938;2023-05-23T11:55:50;0.50;;;0.50;;
15451;SDS011;7827;53.594;9.938;2023-05-23T11:58:21;0.60;;;0.60;;
15451;SDS011;7827;53.594;9.938;2023-05-23T12:00:57;0.60;;;0.60;;
15451;SDS011;7827;53.594;9.938;2023-05-23T12:03:27;0.60;;;0.60;;
15451;SDS011;7827;53.594;9.938;2023-05-23T12:05:56;0.60;;;0.60;;
15451;SDS011;7827;53.594;9.938;2023-05-23T12:08:26;0.52;;;0.52;;
15451;SDS011;7827;53.594;9.938;2023-05-23T12:10:57;0.50;;;0.50;;
15451;SDS011;7827;53.594;9.938;2023-05-23T12:13:28;0.60;;;0.60;;
15451;SDS011;7827;53.594;9.938;2023-05-23T12:15:58;0.50;;;0.50;;
15451;SDS011;7827;53.594;9.938;2023-05-23T12:18:29;0.55;;;0.55;;
15451;SDS011;7827;53.594;9.938;2023-05-23T12:20:59;0.50;;;0.50;;
15451;SDS011;7827;53.594;9.938;2023-05-23T12:23:28;0.60;;;0.60;;
15451;SDS011;7827;53.594;9.938;2023-05-23T12:26:02;0.50;;;0.50;;
15451;SDS011;7827;53.594;9.938;2023-05-23T12:28:34;0.50;;;0.50;;
15451;SDS011;7827;53.594;9.938;2023-05-23T12:31:07;0.50;;;0.50;;
15451;SDS011;7827;53.594;9.938;2023-05-23T12:33:38;0.60;;;0.60;;
15451;SDS011;7827;53.594;9.938;2023-05-23T12:36:09;0.50;;;0.50;;
15451;SDS011;7827;53.594;9.938;2023-05-23T12:38:37;0.60;;;0.60;;
15451;SDS011;7827;53.594;9.938;2023-05-23T12:41:14;0.50;;;0.50;;
15451;SDS011;7827;53.594;9.938;2023-05-23T12:43:48;0.50;;;0.50;;
15451;SDS011;7827;53.594;9.938;2023-05-23T12:46:18;0.60;;;0.60;;
15451;SDS011;7827;53.594;9.938;2023-05-23T12:48:47;0.50;;;0.50;;
15451;SDS011;7827;53.594;9.938;2023-05-23T12:51:16;0.50;;;0.50;;
15451;SDS011;7827;53.594;9.938;2023-05-23T12:53:45;0.50;;;0.50;;
15451;SDS011;7827;53.594;9.938;2023-05-23T12:56:15;0.50;;;0.50;;
15451;SDS011;7827;53.594;9.938;2023-05-23T12:58:43;0.50;;;0.50;;
15451;SDS011;7827;53.594;9.938;2023-05-23T13:01:12;0.60;;;0.60;;
15451;SDS011;7827;53.594;9.938;2023-05-23T13:03:41;0.60;;;0.60;;
15451;SDS011;7827;53.594;9.938;2023-05-23T13:06:09;0.50;;;0.50;;
15451;SDS011;7827;53.594;9.938;2023-05-23T13:08:37;0.60;;;0.60;;
15451;SDS011;7827;53.594;9.938;2023-05-23T13:11:06;0.55;;;0.55;;
15451;SDS011;7827;53.594;9.938;2023-05-23T13:13:36;0.50;;;0.50;;
15451;SDS011;7827;53.594;9.938;2023-05-23T13:16:05;0.60;;;0.60;;
15451;SDS011;7827;53.594;9.938;2023-05-23T13:18:34;0.60;;;0.60;;
15451;SDS011;7827;53.594;9.938;2023-05-23T13:21:03;0.50;;;0.50;;
15451;SDS011;7827;53.594;9.938;2023-05-23T13:23:32;0.60;;;0.60;;
15451;SDS011;7827;53.594;9.938;2023-05-23T13:26:01;0.50;;;0.50;;
15451;SDS011;7827;53.594;9.938;2023-05-23T13:28:30;0.50;;;0.50;;
15451;SDS011;7827;53.594;9.938;2023-05-23T13:31:00;0.50;;;0.50;;
15451;SDS011;7827;53.594;9.938;2023-05-23T13:33:29;0.50;;;0.50;;
15451;SDS011;7827;53.594;9.938;2023-05-23T13:35:57;0.50;;;0.50;;
15451;SDS011;7827;53.594;9.938;2023-05-23T13:38:25;0.60;;;0.60;;
15451;SDS011;7827;53.594;9.938;2023-05-23T13:40:56;0.60;;;0.60;;
15451;SDS011;7827;53.594;9.938;2023-05-23T13:43:24;0.60;;;0.60;;
15451;SDS011;7827;53.594;9.938;2023-05-23T13:45:52;0.50;;;0.50;;
15451;SDS011;7827;53.594;9.938;2023-05-23T13:48:22;0.60;;;0.60;;
15451;SDS011;7827;53.594;9.938;2023-05-23T13:50:50;0.60;;;0.60;;
15451;SDS011;7827;53.594;9.938;2023-05-23T13:53:19;0.60;;;0.60;;
15451;SDS011;7827;53.594;9.938;2023-05-23T13:55:47;0.60;;;0.60;;
15451;SDS011;7827;53.594;9.938;2023-05-23T13:58:16;0.50;;;0.50;;
15451;SDS011;7827;53.594;9.938;2023-05-23T14:00:44;0.55;;;0.55;;
15451;SDS011;7827;53.594;9.938;2023-05-23T14:03:12;0.60;;;0.60;;
15451;SDS011;7827;53.594;9.938;2023-05-23T14:05:42;0.50;;;0.50;;
15451;SDS011;7827;53.594;9.938;2023-05-23T14:08:11;0.50;;;0.50;;
15451;SDS011;7827;53.594;9.938;2023-05-23T14:10:39;0.60;;;0.60;;
15451;SDS011;7827;53.594;9.938;2023-05-23T14:13:08;0.60;;;0.60;;
15451;SDS011;7827;53.594;9.938;2023-05-23T14:15:37;0.50;;;0.50;;
15451;SDS011;7827;53.594;9.938;2023-05-23T14:18:07;0.60;;;0.60;;
15451;SDS011;7827;53.594;9.938;2023-05-23T14:20:36;0.50;;;0.50;;
15451;SDS011;7827;53.594;9.938;2023-05-23T14:23:06;0.60;;;0.60;;
15451;SDS011;7827;53.594;9.938;2023-05-23T14:25:34;0.60;;;0.60;;
15451;SDS011;7827;53.594;9.938;2023-05-23T14:28:02;0.55;;;0.55;;
15451;SDS011;7827;53.594;9.938;2023-05-23T14:30:31;0.50;;;0.50;;
15451;SDS011;7827;53.594;9.938;2023-05-23T14:32:59;0.60;;;0.60;;
15451;SDS011;7827;53.594;9.938;2023-05-23T14:35:28;0.50;;;0.50;;
15451;SDS011;7827;53.594;9.938;2023-05-23T14:37:56;0.50;;;0.50;;
15451;SDS011;7827;53.594;9.938;2023-05-23T14:40:26;0.60;;;0.60;;
15451;SDS011;7827;53.594;9.938;2023-05-23T14:42:54;0.60;;;0.60;;
15451;SDS011;7827;53.594;9.938;2023-05-23T14:45:22;0.60;;;0.60;;
15451;SDS011;7827;53.594;9.938;2023-05-23T14:47:51;0.60;;;0.60;;
15451;SDS011;7827;53.594;9.938;2023-05-23T14:50:19;0.60;;;0.60;;
15451;SDS011;7827;53.594;9.938;2023-05-23T14:52:48;0.65;;;0.65;;
15451;SDS011;7827;53.594;9.938;2023-05-23T14:55:16;0.60;;;0.60;;
15451;SDS011;7827;53.594;9.938;2023-05-23T14:57:46;0.50;;;0.50;;
15451;SDS011;7827;53.594;9.938;2023-05-23T15:00:14;0.60;;;0.60;;
15451;SDS011;7827;53.594;9.938;2023-05-23T15:02:44;0.60;;;0.60;;
15451;SDS011;7827;53.594;9.938;2023-05-23T15:05:13;0.60;;;0.60;;
15451;SDS011;7827;53.594;9.938;2023-05-23T15:07:42;0.50;;;0.50;;
15451;SDS011;7827;53.594;9.938;2023-05-23T15:10:10;0.55;;;0.55;;
15451;SDS011;7827;53.594;9.938;2023-05-23T15:12:39;0.60;;;0.60;;
15451;SDS011;7827;53.594;9.938;2023-05-23T15:15:09;0.60;;;0.60;;
15451;SDS011;7827;53.594;9.938;2023-05-23T15:17:38;0.60;;;0.60;;
15451;SDS011;7827;53.594;9.938;2023-05-23T15:20:07;0.60;;;0.60;;
15451;SDS011;7827;53.594;9.938;2023-05-23T15:22:36;0.60;;;0.60;;
15451;SDS011;7827;53.594;9.938;2023-05-23T15:25:07;0.60;;;0.60;;
15451;SDS011;7827;53.594;9.938;2023-05-23T15:27:36;0.50;;;0.50;;
15451;SDS011;7827;53.594;9.938;2023-05-23T15:30:05;0.60;;;0.60;;